createdAt,value
2018-11-29T00:00:40.142Z,95.45
2018-11-29T00:03:09.810Z,95.93
2018-11-29T00:05:38.961Z,96.68
2018-11-29T00:08:07.461Z,96.33
2018-11-29T00:10:35.914Z,98.08
2018-11-29T00:13:04.798Z,98.04
2018-11-29T00:15:33.252Z,98.36
2018-11-29T00:18:01.812Z,99.03
2018-11-29T00:20:30.253Z,99.17
2018-11-29T00:22:59.405Z,98.58
2018-11-29T00:25:27.845Z,100.00
2018-11-29T00:27:56.272Z,98.50
2018-11-29T00:30:25.632Z,99.58
2018-11-29T00:32:55.165Z,99.28
2018-11-29T00:35:23.817Z,100.00
2018-11-29T00:37:52.640Z,99.85
2018-11-29T00:40:22.360Z,98.81
2018-11-29T00:42:51.557Z,99.36
2018-11-29T00:45:21.068Z,98.55
2018-11-29T00:47:49.712Z,98.12
2018-11-29T00:50:18.780Z,97.74
2018-11-29T00:52:48.155Z,97.67
2018-11-29T00:55:18.812Z,97.27
2018-11-29T00:57:47.995Z,97.23
2018-11-29T01:00:22.382Z,96.49
2018-11-29T01:02:51.076Z,96.55
2018-11-29T01:05:49.949Z,96.60
2018-11-29T01:08:18.402Z,96.33
2018-11-29T01:10:46.874Z,96.54
2018-11-29T01:13:15.293Z,95.81
2018-11-29T01:15:44.048Z,94.96
2018-11-29T01:18:12.909Z,95.36
2018-11-29T01:20:41.289Z,94.41
2018-11-29T01:23:09.749Z,95.96
2018-11-29T01:25:38.275Z,95.26
2018-11-29T01:28:06.751Z,94.79
2018-11-29T01:30:35.132Z,95.98
2018-11-29T01:33:04.112Z,95.12
2018-11-29T01:35:32.642Z,94.69
2018-11-29T01:38:01.105Z,96.35
2018-11-29T01:40:30.295Z,94.40
2018-11-29T01:42:58.880Z,95.42
2018-11-29T01:45:27.387Z,95.13
2018-11-29T01:47:56.436Z,94.47
2018-11-29T01:50:25.397Z,94.08
2018-11-29T01:52:53.881Z,94.70
2018-11-29T01:55:23.334Z,94.57
2018-11-29T01:57:51.755Z,93.96
2018-11-29T02:00:20.648Z,93.34
2018-11-29T02:02:50.522Z,93.92
2018-11-29T02:05:19.129Z,95.68
2018-11-29T02:07:48.486Z,94.32
2018-11-29T02:10:26.779Z,93.67
2018-11-29T02:12:55.839Z,94.96
2018-11-29T02:15:24.521Z,93.91
2018-11-29T02:17:53.014Z,94.92
2018-11-29T02:20:21.463Z,94.77
2018-11-29T02:22:49.941Z,95.08
2018-11-29T02:25:18.792Z,93.69
2018-11-29T02:27:47.315Z,93.99
2018-11-29T02:30:18.187Z,94.72
2018-11-29T02:32:46.814Z,94.91
2018-11-29T02:35:15.267Z,94.23
2018-11-29T02:37:43.713Z,94.25
2018-11-29T02:40:13.193Z,94.41
2018-11-29T02:42:41.835Z,93.46
2018-11-29T02:45:13.043Z,94.84
2018-11-29T02:47:41.590Z,94.04
2018-11-29T02:50:11.982Z,93.75
2018-11-29T02:52:40.403Z,93.90
2018-11-29T02:55:10.455Z,94.42
2018-11-29T02:57:39.458Z,94.53
2018-11-29T03:00:17.790Z,94.08
2018-11-29T03:02:46.237Z,95.34
2018-11-29T03:05:14.856Z,94.79
2018-11-29T03:07:43.514Z,93.93
2018-11-29T03:10:13.732Z,94.63
2018-11-29T03:12:42.903Z,94.59
2018-11-29T03:15:12.558Z,94.13
2018-11-29T03:17:41.000Z,94.06
2018-11-29T03:20:10.697Z,94.84
2018-11-29T03:22:39.524Z,93.43
2018-11-29T03:25:09.438Z,94.16
2018-11-29T03:27:37.931Z,94.14
2018-11-29T03:30:08.626Z,93.74
2018-11-29T03:32:37.073Z,93.43
2018-11-29T03:35:05.686Z,93.65
2018-11-29T03:37:34.181Z,93.21
2018-11-29T03:40:02.753Z,93.51
2018-11-29T03:42:31.217Z,93.89
2018-11-29T03:44:59.825Z,94.41
2018-11-29T03:47:28.306Z,93.17
2018-11-29T03:49:57.354Z,93.40
2018-11-29T03:52:25.859Z,93.86
2018-11-29T03:54:54.277Z,93.68
2018-11-29T03:57:22.838Z,93.20
2018-11-29T03:59:51.401Z,93.91
2018-11-29T04:02:19.789Z,94.10
2018-11-29T04:04:48.612Z,93.03
2018-11-29T04:07:17.396Z,92.80
2018-11-29T04:09:45.989Z,93.48
2018-11-29T04:12:14.398Z,93.74
2018-11-29T04:14:42.807Z,92.73
2018-11-29T04:17:11.254Z,92.86
2018-11-29T04:19:39.648Z,92.76
2018-11-29T04:22:08.867Z,93.27
2018-11-29T04:24:37.358Z,93.54
2018-11-29T04:27:06.077Z,93.43
2018-11-29T04:29:34.525Z,93.33
2018-11-29T04:32:02.933Z,92.81
2018-11-29T04:34:31.334Z,93.09
2018-11-29T04:36:59.794Z,93.20
2018-11-29T04:39:28.275Z,93.08
2018-11-29T04:41:56.659Z,93.71
2018-11-29T04:44:25.273Z,93.12
2018-11-29T04:46:53.793Z,93.45
2018-11-29T04:49:22.295Z,93.00
2018-11-29T04:51:51.038Z,93.37
2018-11-29T04:54:19.865Z,93.48
2018-11-29T04:56:48.569Z,94.55
2018-11-29T04:59:17.028Z,93.33
2018-11-29T05:01:45.920Z,93.63
2018-11-29T05:04:14.349Z,93.14
2018-11-29T05:06:42.731Z,93.42
2018-11-29T05:09:11.148Z,93.50
2018-11-29T05:11:39.535Z,93.82
2018-11-29T05:14:08.017Z,93.92
2018-11-29T05:16:36.414Z,93.73
2018-11-29T05:19:04.994Z,93.48
2018-11-29T05:21:33.521Z,93.70
2018-11-29T05:24:02.408Z,93.99
2018-11-29T05:26:30.867Z,93.82
2018-11-29T05:28:59.747Z,94.06
2018-11-29T05:31:28.318Z,93.94
2018-11-29T05:33:56.705Z,93.42
2018-11-29T05:36:26.311Z,94.06
2018-11-29T05:38:54.931Z,93.55
2018-11-29T05:41:23.569Z,93.47
2018-11-29T05:43:52.123Z,93.51
2018-11-29T05:46:20.550Z,93.99
2018-11-29T05:49:19.832Z,93.96
2018-11-29T05:51:48.353Z,94.44
2018-11-29T05:54:19.278Z,93.96
2018-11-29T05:56:47.945Z,94.03
2018-11-29T05:59:16.422Z,93.80
2018-11-29T06:01:45.386Z,93.47
2018-11-29T06:04:13.825Z,93.72
2018-11-29T06:06:42.711Z,93.70
2018-11-29T06:09:11.328Z,93.58
2018-11-29T06:11:40.342Z,93.60
2018-11-29T06:14:09.027Z,93.50
2018-11-29T06:16:38.153Z,93.70
2018-11-29T06:19:08.719Z,93.65
2018-11-29T06:21:37.388Z,93.15
2018-11-29T06:24:06.044Z,94.10
2018-11-29T06:26:34.647Z,93.67
2018-11-29T06:29:03.176Z,93.80
2018-11-29T06:31:31.692Z,93.48
2018-11-29T06:34:00.158Z,94.12
2018-11-29T06:36:29.552Z,94.09
2018-11-29T06:38:58.082Z,93.98
2018-11-29T06:41:26.625Z,93.39
2018-11-29T06:43:55.740Z,93.99
2018-11-29T06:46:24.188Z,93.55
2018-11-29T06:48:52.608Z,94.56
2018-11-29T06:51:21.023Z,94.94
2018-11-29T06:53:54.768Z,96.31
2018-11-29T06:56:23.289Z,97.87
2018-11-29T06:58:51.913Z,97.22
2018-11-29T07:01:20.388Z,98.79
2018-11-29T07:03:48.902Z,97.28
2018-11-29T07:06:17.472Z,97.23
2018-11-29T07:08:46.019Z,97.52
2018-11-29T07:11:14.438Z,99.20
2018-11-29T07:13:42.832Z,97.07
2018-11-29T07:16:11.317Z,97.70
2018-11-29T07:18:39.764Z,96.99
2018-11-29T07:21:19.342Z,96.27
2018-11-29T07:23:48.024Z,95.56
2018-11-29T07:26:16.463Z,96.53
2018-11-29T07:28:45.089Z,95.41
2018-11-29T07:31:13.527Z,95.62
2018-11-29T07:33:42.028Z,96.49
2018-11-29T07:36:10.594Z,95.43
2018-11-29T07:38:39.138Z,95.56
2018-11-29T07:41:07.738Z,97.72
2018-11-29T07:43:36.216Z,95.49
2018-11-29T07:46:04.686Z,95.56
2018-11-29T07:48:33.222Z,94.25
2018-11-29T07:51:01.773Z,95.11
2018-11-29T07:53:30.185Z,94.54
2018-11-29T07:55:58.853Z,97.39
2018-11-29T07:58:27.618Z,97.95
2018-11-29T08:00:56.146Z,95.98
2018-11-29T08:03:24.533Z,95.36
2018-11-29T08:05:52.990Z,96.00
2018-11-29T08:08:21.557Z,95.85
2018-11-29T08:10:49.988Z,95.57
2018-11-29T08:13:18.468Z,96.23
2018-11-29T08:15:47.113Z,97.51
2018-11-29T08:18:15.513Z,98.60
2018-11-29T08:20:43.967Z,95.89
2018-11-29T08:23:12.389Z,95.88
2018-11-29T08:25:40.939Z,96.13
2018-11-29T08:28:09.310Z,95.76
2018-11-29T08:30:37.685Z,97.21
2018-11-29T08:33:06.400Z,96.70
2018-11-29T08:35:34.826Z,95.92
2018-11-29T08:38:03.671Z,95.69
2018-11-29T08:40:31.934Z,97.21
2018-11-29T08:43:00.424Z,95.51
2018-11-29T08:45:29.478Z,97.39
2018-11-29T08:47:57.996Z,97.13
2018-11-29T08:50:26.541Z,96.38
2018-11-29T08:52:55.654Z,94.13
2018-11-29T08:55:24.776Z,95.00
2018-11-29T08:57:53.526Z,95.45
2018-11-29T09:00:22.354Z,94.07
2018-11-29T09:02:50.948Z,94.53
2018-11-29T09:05:19.399Z,93.46
2018-11-29T09:07:48.757Z,93.19
2018-11-29T09:10:18.512Z,93.46
2018-11-29T09:12:47.066Z,93.60
2018-11-29T09:15:16.432Z,93.27
2018-11-29T09:17:44.901Z,93.27
2018-11-29T09:20:20.551Z,92.88
2018-11-29T09:22:49.097Z,92.47
2018-11-29T09:25:18.424Z,92.55
2018-11-29T09:27:47.004Z,92.26
2018-11-29T09:30:17.343Z,92.59
2018-11-29T09:32:46.684Z,92.55
2018-11-29T09:35:15.272Z,92.64
2018-11-29T09:37:43.811Z,92.16
2018-11-29T09:40:14.400Z,93.62
2018-11-29T09:42:43.042Z,92.43
2018-11-29T09:45:16.450Z,91.86
2018-11-29T09:47:45.894Z,91.85
2018-11-29T09:50:15.515Z,93.20
2018-11-29T09:52:44.005Z,92.70
2018-11-29T09:55:14.394Z,92.77
2018-11-29T09:57:43.345Z,92.88
2018-11-29T10:00:16.186Z,93.04
2018-11-29T10:02:48.657Z,91.96
2018-11-29T10:05:17.118Z,93.00
2018-11-29T10:07:45.572Z,93.65
2018-11-29T10:10:14.034Z,93.49
2018-11-29T10:12:42.532Z,93.01
2018-11-29T10:15:12.412Z,91.70
2018-11-29T10:17:40.811Z,92.52
2018-11-29T10:20:15.991Z,93.41
2018-11-29T10:22:44.458Z,92.03
2018-11-29T10:25:14.238Z,94.92
2018-11-29T10:27:44.406Z,92.37
2018-11-29T10:30:15.017Z,91.53
2018-11-29T10:32:43.528Z,91.70
2018-11-29T10:35:11.955Z,91.58
2018-11-29T10:37:40.749Z,90.65
2018-11-29T10:40:10.250Z,91.93
2018-11-29T10:42:38.724Z,91.50
2018-11-29T10:45:12.519Z,90.19
2018-11-29T10:47:41.686Z,89.75
2018-11-29T10:50:11.608Z,89.92
2018-11-29T10:52:40.130Z,90.04
2018-11-29T10:55:14.528Z,90.55
2018-11-29T10:57:43.011Z,90.39
2018-11-29T11:00:22.858Z,90.58
2018-11-29T11:02:56.848Z,90.89
2018-11-29T11:05:25.273Z,90.04
2018-11-29T11:07:53.692Z,89.36
2018-11-29T11:10:22.177Z,89.10
2018-11-29T11:12:50.753Z,89.06
2018-11-29T11:15:19.974Z,89.64
2018-11-29T11:17:48.571Z,88.89
2018-11-29T11:20:16.900Z,88.61
2018-11-29T11:22:45.408Z,89.17
2018-11-29T11:25:13.887Z,89.84
2018-11-29T11:27:42.300Z,90.69
2018-11-29T11:30:13.638Z,90.44
2018-11-29T11:32:42.146Z,89.85
2018-11-29T11:35:11.113Z,87.94
2018-11-29T11:37:39.594Z,87.40
2018-11-29T11:40:10.635Z,87.52
2018-11-29T11:42:39.169Z,87.07
2018-11-29T11:45:09.793Z,87.73
2018-11-29T11:47:38.353Z,87.35
2018-11-29T11:50:10.911Z,87.91
2018-11-29T11:52:39.164Z,88.41
2018-11-29T11:55:08.268Z,88.60
2018-11-29T11:57:36.718Z,88.69
2018-11-29T12:00:11.942Z,87.93
2018-11-29T12:02:40.490Z,88.19
2018-11-29T12:05:10.028Z,88.79
2018-11-29T12:07:38.504Z,90.03
2018-11-29T12:10:09.246Z,88.67
2018-11-29T12:12:37.734Z,89.06
2018-11-29T12:15:10.940Z,89.22
2018-11-29T12:17:40.965Z,88.87
2018-11-29T12:20:12.746Z,89.29
2018-11-29T12:22:41.352Z,90.45
2018-11-29T12:25:12.916Z,89.44
2018-11-29T12:27:41.359Z,90.22
2018-11-29T12:30:14.191Z,90.13
2018-11-29T12:32:42.634Z,88.94
2018-11-29T12:35:11.127Z,90.35
2018-11-29T12:37:39.633Z,89.08
2018-11-29T12:40:12.028Z,87.82
2018-11-29T12:42:40.499Z,87.57
2018-11-29T12:45:11.225Z,87.90
2018-11-29T12:47:39.784Z,87.54
2018-11-29T12:50:16.824Z,87.25
2018-11-29T12:52:45.268Z,87.56
2018-11-29T12:55:14.820Z,87.61
2018-11-29T12:57:43.283Z,86.63
2018-11-29T13:00:17.982Z,87.42
2018-11-29T13:02:49.556Z,87.30
2018-11-29T13:05:18.169Z,86.69
2018-11-29T13:07:46.635Z,86.83
2018-11-29T13:10:16.466Z,86.77
2018-11-29T13:12:44.984Z,86.74
2018-11-29T13:15:16.005Z,87.61
2018-11-29T13:17:44.360Z,87.18
2018-11-29T13:20:14.262Z,87.27
2018-11-29T13:22:42.706Z,86.92
2018-11-29T13:25:14.510Z,87.59
2018-11-29T13:27:43.022Z,87.50
2018-11-29T13:30:13.646Z,87.67
2018-11-29T13:32:42.238Z,87.68
2018-11-29T13:35:15.982Z,87.97
2018-11-29T13:37:47.372Z,87.51
2018-11-29T13:40:15.827Z,87.69
2018-11-29T13:42:44.291Z,88.10
2018-11-29T13:45:12.785Z,88.01
2018-11-29T13:47:41.715Z,88.04
2018-11-29T13:50:12.307Z,88.46
2018-11-29T13:52:40.685Z,88.65
2018-11-29T13:55:10.332Z,89.40
2018-11-29T13:57:38.792Z,88.79
2018-11-29T14:00:16.015Z,89.34
2018-11-29T14:02:46.997Z,89.93
2018-11-29T14:05:13.633Z,88.82
2018-11-29T14:07:42.063Z,89.73
2018-11-29T14:10:14.028Z,89.62
2018-11-29T14:12:42.533Z,89.50
2018-11-29T14:15:12.750Z,89.35
2018-11-29T14:17:41.168Z,90.43
2018-11-29T14:20:10.810Z,89.44
2018-11-29T14:22:39.244Z,90.02
2018-11-29T14:25:10.927Z,89.82
2018-11-29T14:27:40.795Z,89.83
2018-11-29T14:30:26.085Z,90.22
2018-11-29T14:32:55.468Z,90.33
2018-11-29T14:35:23.866Z,89.83
2018-11-29T14:37:52.282Z,89.66
2018-11-29T14:40:22.795Z,90.09
2018-11-29T14:42:51.289Z,90.33
2018-11-29T14:45:22.692Z,91.18
2018-11-29T14:47:51.275Z,90.11
2018-11-29T14:50:24.171Z,90.28
2018-11-29T14:52:52.811Z,90.56
2018-11-29T14:55:21.855Z,90.57
2018-11-29T14:57:49.772Z,91.06
2018-11-29T15:00:18.231Z,90.74
2018-11-29T15:02:46.750Z,90.46
2018-11-29T15:05:18.832Z,90.39
2018-11-29T15:07:47.268Z,91.35
2018-11-29T15:10:15.827Z,91.74
2018-11-29T15:12:44.291Z,90.86
2018-11-29T15:15:13.345Z,90.92
2018-11-29T15:17:42.683Z,91.44
2018-11-29T15:20:15.530Z,90.84
2018-11-29T15:22:43.942Z,90.56
2018-11-29T15:25:12.393Z,91.22
2018-11-29T15:27:40.783Z,90.64
2018-11-29T15:30:12.273Z,90.72
2018-11-29T15:32:40.663Z,90.87
2018-11-29T15:35:09.510Z,91.56
2018-11-29T15:37:37.958Z,91.04
2018-11-29T15:40:09.072Z,91.85
2018-11-29T15:42:37.440Z,91.23
2018-11-29T15:45:08.192Z,91.78
2018-11-29T15:47:36.668Z,91.24
2018-11-29T15:50:07.188Z,92.09
2018-11-29T15:52:35.600Z,91.23
2018-11-29T15:55:04.750Z,92.00
2018-11-29T15:57:34.977Z,91.32
2018-11-29T16:00:01.618Z,91.44
2018-11-29T16:02:30.174Z,91.06
2018-11-29T16:04:58.569Z,91.19
2018-11-29T16:07:27.735Z,92.15
2018-11-29T16:09:56.121Z,91.06
2018-11-29T16:12:24.567Z,91.45
2018-11-29T16:14:52.982Z,91.50
2018-11-29T16:17:21.453Z,91.78
2018-11-29T16:19:49.875Z,91.39
2018-11-29T16:22:18.285Z,91.49
2018-11-29T16:24:46.743Z,91.54
2018-11-29T16:27:15.321Z,90.52
2018-11-29T16:29:43.795Z,90.55
2018-11-29T16:32:12.907Z,89.57
2018-11-29T16:34:41.344Z,89.54
2018-11-29T16:37:09.766Z,90.70
2018-11-29T16:39:38.199Z,90.43
2018-11-29T16:42:06.710Z,90.10
2018-11-29T16:44:35.263Z,89.42
2018-11-29T16:47:03.705Z,89.01
2018-11-29T16:49:32.105Z,88.34
2018-11-29T16:52:00.689Z,88.44
2018-11-29T16:54:29.156Z,88.55
2018-11-29T16:56:57.651Z,88.35
2018-11-29T16:59:26.218Z,89.05
2018-11-29T17:01:54.691Z,89.39
2018-11-29T17:04:23.286Z,89.57
2018-11-29T17:06:51.738Z,89.10
2018-11-29T17:09:20.200Z,88.52
2018-11-29T17:11:50.564Z,88.63
2018-11-29T17:14:19.002Z,88.15
2018-11-29T17:16:47.533Z,88.43
2018-11-29T17:19:16.005Z,89.04
2018-11-29T17:21:44.481Z,89.76
2018-11-29T17:24:13.129Z,88.67
2018-11-29T17:26:41.567Z,88.57
2018-11-29T17:29:10.037Z,88.15
2018-11-29T17:31:38.536Z,87.11
2018-11-29T17:34:07.055Z,87.34
2018-11-29T17:36:35.596Z,86.75
2018-11-29T17:39:05.429Z,86.52
2018-11-29T17:41:34.001Z,86.56
2018-11-29T17:44:02.502Z,87.80
2018-11-29T17:46:30.948Z,86.62
2018-11-29T17:49:00.341Z,87.62
2018-11-29T17:51:28.941Z,88.03
2018-11-29T17:53:57.338Z,88.58
2018-11-29T17:56:25.784Z,88.41
2018-11-29T17:58:54.302Z,87.87
2018-11-29T18:01:22.709Z,87.31
2018-11-29T18:03:51.128Z,88.98
2018-11-29T18:06:19.517Z,88.42
2018-11-29T18:08:47.948Z,87.60
2018-11-29T18:11:16.345Z,87.04
2018-11-29T18:13:45.859Z,87.04
2018-11-29T18:16:14.677Z,86.57
2018-11-29T18:18:43.067Z,86.84
2018-11-29T18:21:11.597Z,85.38
2018-11-29T18:23:40.037Z,85.39
2018-11-29T18:26:08.469Z,86.12
2018-11-29T18:28:36.907Z,84.63
2018-11-29T18:31:05.370Z,83.54
2018-11-29T18:33:33.884Z,82.77
2018-11-29T18:36:02.349Z,82.78
2018-11-29T18:38:30.711Z,83.56
2018-11-29T18:40:59.316Z,83.63
2018-11-29T18:43:27.704Z,82.98
2018-11-29T18:45:56.127Z,83.41
2018-11-29T18:48:24.668Z,81.93
2018-11-29T18:50:53.100Z,82.47
2018-11-29T18:53:21.688Z,82.55
2018-11-29T18:55:50.193Z,83.92
2018-11-29T18:58:18.653Z,82.57
2018-11-29T19:00:47.089Z,83.52
2018-11-29T19:03:15.629Z,83.95
2018-11-29T19:05:44.192Z,84.71
2018-11-29T19:08:12.424Z,85.81
2018-11-29T19:11:11.636Z,84.71
2018-11-29T19:13:40.134Z,84.05
2018-11-29T19:16:09.966Z,83.96
2018-11-29T19:18:38.754Z,84.87
2018-11-29T19:21:07.517Z,84.14
2018-11-29T19:23:35.951Z,85.11
2018-11-29T19:26:06.007Z,84.95
2018-11-29T19:28:34.352Z,84.37
2018-11-29T19:31:03.244Z,84.74
2018-11-29T19:33:31.732Z,84.42
2018-11-29T19:36:00.861Z,84.56
2018-11-29T19:38:30.471Z,84.72
2018-11-29T19:40:59.012Z,84.90
2018-11-29T19:43:34.659Z,84.06
2018-11-29T19:46:03.314Z,83.89
2018-11-29T19:48:32.759Z,84.49
2018-11-29T19:51:01.169Z,83.82
2018-11-29T19:53:32.163Z,83.08
2018-11-29T19:56:01.918Z,83.48
2018-11-29T19:58:30.336Z,82.67
2018-11-29T20:00:58.896Z,81.20
2018-11-29T20:03:27.389Z,83.11
2018-11-29T20:05:55.929Z,80.50
2018-11-29T20:08:24.535Z,80.17
2018-11-29T20:10:53.096Z,80.28
2018-11-29T20:13:21.521Z,80.42
2018-11-29T20:15:52.583Z,81.42
2018-11-29T20:18:21.348Z,80.80
2018-11-29T20:20:50.365Z,80.00
2018-11-29T20:23:18.895Z,79.42
2018-11-29T20:25:48.437Z,80.81
2018-11-29T20:28:16.884Z,80.32
2018-11-29T20:30:45.321Z,79.01
2018-11-29T20:33:13.930Z,78.83
2018-11-29T20:35:42.403Z,79.83
2018-11-29T20:38:11.323Z,77.14
2018-11-29T20:40:41.655Z,77.45
2018-11-29T20:43:10.308Z,76.92
2018-11-29T20:45:53.609Z,76.83
2018-11-29T20:48:26.429Z,75.79
2018-11-29T20:50:56.686Z,76.10
2018-11-29T20:53:32.938Z,76.44
2018-11-29T20:56:02.022Z,76.44
2018-11-29T20:58:30.486Z,75.94
2018-11-29T21:00:59.059Z,76.17
2018-11-29T21:03:27.985Z,77.85
2018-11-29T21:05:56.698Z,79.37
2018-11-29T21:08:25.665Z,77.26
2018-11-29T21:10:54.218Z,76.58
2018-11-29T21:13:23.983Z,75.27
2018-11-29T21:15:52.592Z,74.66
2018-11-29T21:18:21.026Z,75.35
2018-11-29T21:20:49.563Z,75.75
2018-11-29T21:23:19.408Z,76.33
2018-11-29T21:25:47.883Z,76.08
2018-11-29T21:28:16.513Z,75.69
2018-11-29T21:30:44.975Z,75.21
2018-11-29T21:33:13.854Z,75.05
2018-11-29T21:35:42.320Z,75.30
2018-11-29T21:38:12.816Z,75.68
2018-11-29T21:40:42.735Z,75.13
2018-11-29T21:43:11.864Z,74.87
2018-11-29T21:45:40.392Z,76.93
2018-11-29T21:48:09.294Z,76.86
2018-11-29T21:50:37.796Z,75.70
2018-11-29T21:53:06.362Z,75.26
2018-11-29T21:55:34.869Z,75.65
2018-11-29T21:58:03.615Z,75.13
2018-11-29T22:00:33.304Z,76.03
2018-11-29T22:03:01.932Z,75.75
2018-11-29T22:05:30.391Z,74.87
2018-11-29T22:07:58.874Z,74.17
2018-11-29T22:10:27.317Z,73.50
2018-11-29T22:12:56.104Z,74.47
2018-11-29T22:15:24.722Z,80.49
2018-11-29T22:18:30.262Z,79.37
2018-11-29T22:21:02.126Z,76.95
2018-11-29T22:23:31.424Z,76.16
2018-11-29T22:26:01.029Z,76.92
2018-11-29T22:28:30.213Z,76.14
2018-11-29T22:30:59.690Z,74.86
2018-11-29T22:33:28.547Z,76.49
2018-11-29T22:35:57.225Z,77.56
2018-11-29T22:38:26.344Z,77.34
2018-11-29T22:40:54.897Z,76.93
2018-11-29T22:43:23.395Z,76.05
2018-11-29T22:45:51.958Z,77.09
2018-11-29T22:48:20.469Z,78.17
2018-11-29T22:50:48.994Z,78.65
2018-11-29T22:53:17.952Z,77.88
2018-11-29T22:55:46.497Z,76.81
2018-11-29T22:58:15.025Z,77.32
2018-11-29T23:00:48.681Z,76.71
2018-11-29T23:03:17.638Z,75.15
2018-11-29T23:05:46.189Z,74.73
2018-11-29T23:08:14.677Z,73.67
2018-11-29T23:10:43.148Z,74.30
2018-11-29T23:13:11.626Z,74.18
2018-11-29T23:15:40.222Z,74.37
2018-11-29T23:18:09.010Z,73.89
2018-11-29T23:20:38.252Z,74.23
2018-11-29T23:23:06.695Z,76.21
2018-11-29T23:25:35.763Z,75.09
2018-11-29T23:28:05.086Z,75.03
2018-11-29T23:30:33.859Z,74.90
2018-11-29T23:33:02.343Z,76.10
2018-11-29T23:35:30.867Z,76.10
2018-11-29T23:37:59.355Z,76.02
2018-11-29T23:40:27.834Z,75.92
2018-11-29T23:42:56.353Z,76.11
2018-11-29T23:45:24.731Z,75.86
2018-11-29T23:47:53.239Z,74.15
2018-11-29T23:50:21.697Z,73.42
2018-11-29T23:52:50.165Z,74.63
2018-11-29T23:55:20.528Z,74.86
2018-11-29T23:57:48.965Z,75.24
